Latest Coastal Weather Observations for Port Augusta

IDS60701

Issued at 1:02 am CST Thursday 7 May 2015 (issued every 10 minutes, with the page automatically refreshed every 10 minutes)

About coastal observations | Map of coastal stations | Coastal observations for SA | Marine services | Other Formats
Station Details ID: 018201 Name: PORT AUGUSTA AERO Lat: -32.51 Lon: 137.72 Height: 13.97 m
Data from the previous 72 hours. | See also: Recent months at Port Augusta
Date/Time
CST
Temp

°C
Wind Pressure Rain
since 9am
mm
Weather Cloud Vis
km
Sea
Height
m
Swell
Dir
 
Speed
knots
Gust
knots
hPa Trend Height
m
Period
s
Dir
07/01:00am 9.2 SW 5 6 1025.3 - 0.0 - - - - - - -
07/12:30am 10.8 SW 4 5 1025.0 - 0.0 - - - - - - -
07/12:00am 12.0 SSW 7 8 1025.0 - 0.0 - - - - - - -
 
Date/Time
CST
Temp

°C
Wind Pressure Rain
since 9am
mm
Weather Cloud Vis
km
Sea
Height
m
Swell
Dir
 
Speed
knots
Gust
knots
hPa Trend Height
m
Period
s
Dir
06/11:30pm 12.3 SSW 7 9 1025.1 - 0.0 - - - - - - -
06/11:00pm 12.0 SW 6 8 1025.3 - 0.0 - - - - - - -
06/10:30pm 12.0 W 6 6 1025.1 - 0.0 - - - - - - -
06/10:00pm 13.3 WNW 5 5 1025.0 - 0.0 - Partly cloudy - - - - -
06/09:30pm 14.1 W 3 3 1024.8 - 0.0 - Cloudy - - - - -
06/09:00pm 14.3 S 3 6 1024.4 - 0.0 - Mostly cloudy - - - - -
06/08:30pm 13.4 S 3 4 1024.2 - 0.0 - Partly cloudy - - - - -
06/08:00pm 14.2 S 5 7 1024.0 - 0.0 - Partly cloudy - - - - -
06/07:30pm 13.7 S 6 7 1023.5 - 0.0 - Partly cloudy - - - - -
06/07:00pm 14.0 SSE 5 7 1023.0 - 0.0 - - - - - - -
06/06:30pm 15.2 SE 6 8 1022.5 - 0.0 - - - - - - -
06/06:00pm 15.4 ESE 5 7 1022.0 - 0.0 - - - - - - -
06/05:30pm 16.4 SE 6 9 1021.9 - 0.0 - Partly cloudy - - - - -
06/05:00pm 17.2 SE 11 14 1021.7 - 0.0 - Partly cloudy - - - - -
06/04:30pm 17.7 SSE 9 12 1021.8 - 0.0 - Partly cloudy - - - - -
06/04:00pm 20.6 WSW 13 18 1021.5 - 0.0 - Partly cloudy - - - - -
06/03:30pm 21.3 WSW 14 18 1021.5 - 0.0 - Cloudy - - - - -
06/03:00pm 20.5 WSW 14 20 1021.5 - 0.0 - Mostly cloudy - - - - -
06/02:30pm 21.5 WSW 13 18 1021.5 - 0.0 - Partly cloudy - - - - -
06/02:00pm 20.7 W 14 17 1021.7 - 0.0 - Partly cloudy - - - - -
06/01:30pm 20.5 WSW 14 17 1022.0 - 0.0 - Partly cloudy - - - - -
06/01:00pm 20.0 WSW 10 14 1022.3 - 0.0 - Cloudy - - - - -
06/12:30pm 19.1 WSW 10 15 1022.8 - 0.0 - Partly cloudy - - - - -
06/12:00pm 19.6 W 10 15 1023.1 - 0.0 - Mostly cloudy - - - - -
06/11:30am 19.1 WSW 14 19 1023.4 - 0.0 - - - - - - -
06/11:00am 18.5 WSW 13 18 1023.5 - 0.0 - - - - - - -
06/10:30am 17.7 W 13 17 1023.6 - 0.0 - - - - - - -
06/10:00am 16.8 W 12 15 1023.5 - 0.0 - - - - - - -
06/09:30am 16.2 W 11 15 1023.5 - 0.0 - - - - - - -
06/09:00am 15.4 WNW 9 12 1023.2 - 0.0 - - - - - - -
06/08:30am 14.4 NW 7 9 1023.1 - 0.0 - - - - - - -
06/08:00am 12.9 NNW 7 8 1022.7 - 0.0 - Partly cloudy - - - - -
06/07:30am 12.0 WNW 6 7 1022.3 - 0.0 - Cloudy - - - - -
06/07:00am 11.0 WNW 6 7 1021.9 - 0.0 - - - - - - -
06/06:30am 12.4 WNW 7 10 1021.4 - 0.0 - - - - - - -
06/06:00am 11.7 N 4 5 1020.7 - 0.0 - Mostly cloudy - - - - -
06/05:30am 13.0 NW 4 5 1020.7 - 0.0 - Cloudy 10 - - - -
06/05:00am 13.4 W 6 8 1020.5 - 0.0 - Cloudy 10 - - - -
06/04:30am 13.2 W 5 7 1020.2 - 0.0 - Cloudy 10 - - - -
06/04:00am 13.3 W 6 8 1020.0 - 0.0 - Cloudy 10 - - - -
06/03:30am 13.0 W 5 6 1019.9 - 0.0 - Cloudy 10 - - - -
06/03:00am 13.0 W 6 7 1019.8 - 0.0 - Cloudy 10 - - - -
06/02:30am 13.3 WSW 7 10 1019.6 - 0.0 - Partly cloudy 10 - - - -
06/02:00am 13.5 WSW 8 10 1019.8 - 0.0 - Cloudy 10 - - - -
06/01:30am 13.5 WSW 6 8 1019.6 - 0.0 - Cloudy 10 - - - -
06/01:00am 13.4 W 5 7 1019.8 - 0.0 - Cloudy 10 - - - -
06/12:30am 13.5 SSW 2 4 1019.8 - 0.0 - Partly cloudy 10 - - - -
06/12:00am 13.6 WSW 5 5 1019.5 - 0.0 - Cloudy 10 - - - -
 
Date/Time
CST
Temp

°C
Wind Pressure Rain
since 9am
mm
Weather Cloud Vis
km
Sea
Height
m
Swell
Dir
 
Speed
knots
Gust
knots
hPa Trend Height
m
Period
s
Dir
05/11:30pm 13.7 WSW 5 7 1019.8 - 0.0 - Cloudy 10 - - - -
05/11:00pm 13.6 WSW 4 5 1019.7 - 0.0 - Cloudy 10 - - - -
05/10:30pm 13.5 SW 3 5 1019.6 - 0.0 - Cloudy 10 - - - -
05/10:00pm 13.5 SSW 2 5 1019.4 - 0.0 - Cloudy 10 - - - -
05/09:30pm 13.5 SW 3 4 1019.1 - 0.0 - Cloudy 10 - - - -
05/09:00pm 13.9 S 5 7 1018.8 - 0.0 - Cloudy 10 - - - -
05/08:30pm 13.5 SW 7 9 1018.6 - 0.0 - Partly cloudy 10 - - - -
05/08:00pm 13.8 SSW 9 12 1018.2 - 0.0 - Partly cloudy 10 - - - -
05/07:30pm 14.1 SW 10 13 1017.7 - 0.0 - Partly cloudy 10 - - - -
05/07:00pm 14.6 SSW 10 13 1017.4 - 0.0 - Partly cloudy 10 - - - -
05/06:30pm 14.5 SW 6 10 1016.8 - 0.0 - Partly cloudy 10 - - - -
05/06:00pm 15.4 SW 12 16 1016.2 - 0.0 - Mostly clear 10 - - - -
05/05:30pm 15.8 SW 11 15 1015.9 - 0.0 - Partly cloudy 10 - - - -
05/05:00pm 16.6 SW 16 20 1015.5 - 0.0 - Partly cloudy 10 - - - -
05/04:30pm 17.6 SW 16 23 1015.2 - 0.0 - Cloudy 10 - - - -
05/04:00pm 18.5 SW 17 25 1014.7 - 0.0 - Cloudy 10 - - - -
05/03:30pm 18.6 WSW 20 28 1014.4 - 0.0 - Partly cloudy 10 - - - -
05/03:07pm 18.6 WSW 18 28 1014.6 - 0.0 - Partly cloudy 10 - - - -
05/03:00pm 19.0 WSW 21 29 1014.5 - 0.0 - Cloudy 10 - - - -
05/02:53pm 19.0 WSW 18 29 1014.5 - 0.0 - Partly cloudy 10 - - - -
05/02:30pm 18.2 WSW 16 24 1014.6 - 0.0 - Partly cloudy 10 - - - -
05/02:14pm 17.9 SW 16 26 1014.6 - 0.0 - Partly cloudy 10 - - - -
05/02:00pm 19.5 WSW 18 24 1014.4 - 0.0 - Partly cloudy 10 - - - -
05/01:30pm 17.7 WSW 17 26 1014.5 - 0.0 - Partly cloudy 10 - - - -
05/01:00pm 17.6 SW 16 22 1014.6 - 0.0 - Partly cloudy 10 - - - -
05/12:30pm 16.5 SW 20 30 1014.6 - 0.0 - Partly cloudy 10 - - - -
05/12:28pm 17.4 SW 18 30 1014.5 - 0.0 - Partly cloudy 10 - - - -
05/12:00pm 18.1 WSW 17 26 1014.5 - 0.0 - Cloudy 10 - - - -
05/11:30am 18.0 W 18 27 1014.8 - 0.0 - Partly cloudy 10 - - - -
05/11:00am 18.3 W 19 24 1014.8 - 0.0 - Partly cloudy - - - - -
05/10:30am 17.1 W 20 27 1015.0 - 0.0 - Partly cloudy - - - - -
05/10:00am 16.2 W 14 21 1015.0 - 0.0 - Cloudy - - - - -
05/09:30am 16.3 WSW 15 24 1014.7 - 0.0 - Partly cloudy - - - - -
05/09:00am 15.6 WNW 13 19 1014.5 - 0.0 - Mostly cloudy - - - - -
05/08:30am 15.4 NNW 9 12 1013.8 - 0.0 - Partly cloudy - - - - -
05/08:00am 14.0 N 10 13 1013.1 - 0.0 - Partly cloudy - - - - -
05/07:30am 13.6 N 10 13 1012.9 - 0.0 - Cloudy - - - - -
05/07:00am 12.7 N 9 11 1012.6 - 0.0 - Partly cloudy - - - - -
05/06:30am 13.0 N 9 11 1012.5 - 0.0 - Partly cloudy 10 - - - -
05/06:00am 12.4 N 9 11 1012.0 - 0.0 - - 10 - - - -
05/05:30am 12.9 N 8 12 1012.1 - 0.0 - - 10 - - - -
05/05:00am 14.1 WNW 10 14 1011.8 - 0.0 - - 10 - - - -
05/04:30am 14.1 NW 10 14 1011.5 - 0.0 - Partly cloudy 10 - - - -
05/04:00am 15.0 WNW 12 16 1011.5 - 0.0 - - 10 - - - -
05/03:30am 15.5 WNW 12 16 1011.2 - 0.0 - Partly cloudy 10 - - - -
05/03:00am 16.1 W 13 18 1011.2 - 0.0 - Mostly cloudy 10 - - - -
05/02:30am 16.6 W 18 24 1011.3 - 0.0 - Partly cloudy 10 - - - -
05/02:00am 16.8 W 14 20 1011.5 - 0.0 - Cloudy 10 - - - -
05/01:30am 17.5 W 16 25 1011.0 - 0.0 - Partly cloudy 10 - - - -
05/01:00am 18.1 W 22 32 1010.8 - 0.0 - Cloudy 10 - - - -
05/12:32am 18.5 W 17 29 1010.4 - 0.0 - Partly cloudy 10 - - - -
05/12:30am 18.4 W 17 22 1010.5 - 0.0 - Partly cloudy 10 - - - -
05/12:00am 18.8 W 17 21 1010.4 - 0.0 - Partly cloudy 10 - - - -
 
Date/Time
CST
Temp

°C
Wind Pressure Rain
since 9am
mm
Weather Cloud Vis
km
Sea
Height
m
Swell
Dir
 
Speed
knots
Gust
knots
hPa Trend Height
m
Period
s
Dir
04/11:30pm 19.8 W 17 23 1009.9 - 0.0 - Partly cloudy 10 - - - -
04/11:00pm 20.6 W 17 24 1009.6 - 0.0 - Partly cloudy 10 - - - -
04/10:30pm 21.2 W 14 18 1009.3 - 0.0 - Partly cloudy 10 - - - -
04/10:00pm 21.7 W 16 20 1008.7 - 0.0 - Cloudy 10 - - - -
04/09:30pm 22.0 NNW 19 24 1007.9 - 0.0 - Partly cloudy 10 - - - -
04/09:00pm 21.3 WNW 16 22 1008.4 - 0.0 - Cloudy 10 - - - -
04/08:30pm 24.2 WNW 16 27 1008.2 - 0.0 - Partly cloudy 10 - - - -
04/08:29pm 23.6 WNW 15 27 1008.3 - 0.0 - Partly cloudy 10 - - - -
04/08:00pm 25.2 N 16 24 1007.1 - 0.0 - Cloudy 10 - - - -
04/07:30pm 24.8 N 14 17 1006.2 - 0.0 - Partly cloudy 10 - - - -
04/07:00pm 25.0 N 14 20 1006.3 - 0.0 - Cloudy 10 - - - -
04/06:30pm 25.7 N 16 21 1005.8 - 0.0 - Partly cloudy 10 - - - -
04/06:00pm 25.6 N 14 17 1006.3 - 0.0 - Cloudy 10 - - - -
04/05:30pm 26.1 N 15 19 1006.4 - 0.0 - Cloudy 10 - - - -
04/05:00pm 26.6 N 14 18 1006.2 - 0.0 - Cloudy 10 - - - -
04/04:30pm 27.9 N 18 23 1006.3 - 0.0 - Partly cloudy 10 - - - -
04/04:00pm 27.9 N 18 24 1006.5 - 0.0 - Partly cloudy 10 - - - -
04/03:30pm 28.4 N 21 28 1006.4 - 0.0 - Partly cloudy 10 - - - -
04/03:00pm 28.9 N 22 31 1006.8 - 0.0 - - 10 - - - -
04/02:33pm 28.3 N 25 35 1006.8 - 0.0 - - 10 - - - -
04/02:30pm 28.5 N 25 31 1006.8 - 0.0 - - 10 - - - -
04/02:00pm 27.4 N 24 33 1007.4 - 0.0 - - 10 - - - -
04/01:30pm 27.5 N 23 31 1008.3 - 0.0 - - 10 - - - -
04/01:00pm 26.8 N 23 30 1009.0 - 0.0 - - 10 - - - -
04/12:30pm 26.6 N 25 32 1010.1 - 0.0 - - 10 - - - -
04/12:00pm 25.8 N 23 29 1010.9 - 0.0 - - 10 - - - -
04/11:30am 24.3 N 23 32 1011.5 - 0.0 - - 10 - - - -
04/11:00am 22.6 N 22 29 1011.8 - 0.0 - Partly cloudy 10 - - - -
04/10:30am 23.1 N 21 27 1012.1 - 0.0 - Partly cloudy 10 - - - -
04/10:00am 22.1 N 20 27 1012.7 - 0.0 - Partly cloudy 10 - - - -
04/09:30am 20.9 N 20 26 1012.9 - 0.0 - - 10 - - - -
04/09:00am 19.5 N 20 25 1013.1 - 0.0 - - 10 - - - -
04/08:30am 18.4 N 14 21 1013.3 - 0.0 - - 10 - - - -
04/08:00am 17.0 NW 10 13 1013.3 - 0.0 - - 10 - - - -
04/07:30am 15.8 NNW 12 16 1013.2 - 0.0 - - - - - - -
04/07:00am 14.8 NNW 10 15 1013.3 - 0.0 - - - - - - -
04/06:30am 14.3 N 11 14 1013.4 - 0.0 - - - - - - -
04/06:00am 14.3 N 11 16 1013.3 - 0.0 - - - - - - -
04/05:30am 13.7 NNW 7 10 1013.7 - 0.0 - - - - - - -
04/05:00am 12.6 NNW 5 7 1013.7 - 0.0 - - - - - - -
04/04:30am 12.4 NNW 7 9 1013.6 - 0.0 - - - - - - -
04/04:00am 11.6 NNW 9 10 1013.6 - 0.0 - - - - - - -
04/03:30am 13.0 W 2 4 1013.8 - 0.0 - - - - - - -
04/03:00am 13.7 WNW 4 5 1013.8 - 0.0 - - - - - - -
04/02:30am 12.1 W 7 8 1014.3 - 0.0 - - - - - - -
04/02:00am 11.7 W 6 7 1014.5 - 0.0 - - - - - - -
04/01:30am 11.5 WSW 6 7 1014.3 - 0.0 - - - - - - -

Other Formats:

Comma delimited format used in spreadsheet applications
http://www.bom.gov.au/fwo/IDS60701/IDS60701.95666.axf

JavaScript Object Notation format (JSON) in row-major order
http://www.bom.gov.au/fwo/IDS60701/IDS60701.95666.json